Time;durP1;ratioP1;P1;durP2;ratioP2;P2;SDS_P1;SDS_P2;PMS_P1;PMS_P2;Temp;Humidity;BMP_temperature;BMP_pressure;BME280_temperature;BME280_humidity;BME280_pressure;Samples;Min_cycle;Max_cycle;Signal;HPM_P1;HPM_P2
2022/10/25 00:01:43;;;;;;;;;;;13.10;99.90;;;;;;5060554;28;19970;-76
2022/10/25 00:04:10;;;;;;;;;;;13.10;99.90;;;;;;5050820;28;19940;-75
2022/10/25 00:06:36;;;;;;;;;;;13.50;99.90;;;;;;5043590;28;19932;-75
2022/10/25 00:09:05;;;;;;;;;;;13.00;99.90;;;;;;5057687;28;19932;-75
2022/10/25 00:11:32;;;;;;;;;;;13.00;99.90;;;;;;5051443;28;20302;-74
2022/10/25 00:13:59;;;;;;;;;;;13.00;99.90;;;;;;5058912;28;19937;-74
2022/10/25 00:16:27;;;;;;;;;;;13.00;99.90;;;;;;5061817;28;19982;-74
2022/10/25 00:18:54;;;;;;;;;;;13.10;99.90;;;;;;5038222;28;19929;-75
2022/10/25 00:21:21;;;;;;;;;;;13.00;99.90;;;;;;5042842;28;20416;-76
2022/10/25 00:23:47;;;;;;;;;;;13.10;99.90;;;;;;5058516;28;19950;-74
2022/10/25 00:26:16;;;;;;;;;;;13.50;99.90;;;;;;5050033;28;19932;-74
2022/10/25 00:28:42;;;;;;;;;;;13.20;99.90;;;;;;5054014;28;19935;-75
2022/10/25 00:31:10;;;;;;;;;;;13.20;99.90;;;;;;5055735;28;19957;-74
2022/10/25 00:33:37;;;;;;;;;;;13.30;99.90;;;;;;5051320;28;20403;-76
2022/10/25 00:36:05;;;;;;;;;;;12.50;99.90;;;;;;5054011;28;19925;-76
2022/10/25 00:38:31;;;;;;;;;;;13.40;99.90;;;;;;5053591;28;19929;-75
2022/10/25 00:40:58;;;;;;;;;;;13.40;99.90;;;;;;5053323;28;19936;-75
2022/10/25 00:43:34;;;;;;;;;;;13.50;99.90;;;;;;5048035;28;19929;-75
2022/10/25 00:46:01;;;;;;;;;;;13.60;99.90;;;;;;5059245;28;19955;-74
2022/10/25 00:48:28;;;;;;;;;;;13.60;99.90;;;;;;5037059;28;20397;-74
2022/10/25 00:50:55;;;;;;;;;;;13.60;99.90;;;;;;5048455;28;20007;-74
2022/10/25 00:53:26;;;;;;;;;;;13.60;99.90;;;;;;5040661;28;20141;-74
2022/10/25 00:55:55;;;;;;;;;;;13.60;99.90;;;;;;5048439;28;19936;-75
2022/10/25 00:58:24;;;;;;;;;;;13.60;99.90;;;;;;5049061;28;19982;-74
2022/10/25 01:00:52;;;;;;;;;;;13.60;99.90;;;;;;5056318;28;19928;-74
2022/10/25 01:03:20;;;;;;;;;;;13.60;99.90;;;;;;5056584;28;19929;-73
2022/10/25 01:05:47;;;;;;;;;;;13.70;99.90;;;;;;5057541;28;19969;-74
2022/10/25 01:08:15;;;;;;;;;;;13.70;99.90;;;;;;5060157;28;19929;-73
2022/10/25 01:10:42;;;;;;;;;;;13.80;99.90;;;;;;5058727;28;19975;-74
2022/10/25 01:13:08;;;;;;;;;;;13.80;99.90;;;;;;5058750;28;20436;-75
2022/10/25 01:15:38;;;;;;;;;;;13.90;99.90;;;;;;5050875;28;20475;-74
2022/10/25 01:18:11;;;;;;;;;;;13.90;99.90;;;;;;5047848;28;20008;-75
2022/10/25 01:20:52;;;;;;;;;;;14.00;99.90;;;;;;5058055;28;20463;-74
2022/10/25 01:23:26;;;;;;;;;;;14.00;99.90;;;;;;5058205;28;19924;-73
2022/10/25 01:25:58;;;;;;;;;;;14.00;99.90;;;;;;5047462;28;19975;-75
2022/10/25 01:28:32;;;;;;;;;;;14.10;99.90;;;;;;5050111;28;19929;-75
2022/10/25 01:31:04;;;;;;;;;;;14.50;99.90;;;;;;5049514;28;19966;-75
2022/10/25 01:33:35;;;;;;;;;;;14.20;99.90;;;;;;5050472;28;19929;-75
2022/10/25 01:36:06;;;;;;;;;;;14.20;99.90;;;;;;5040703;28;19925;-74
2022/10/25 01:38:37;;;;;;;;;;;14.20;99.90;;;;;;5053769;28;20332;-75
2022/10/25 01:41:08;;;;;;;;;;;14.20;99.90;;;;;;5047460;28;19929;-75
2022/10/25 01:43:40;;;;;;;;;;;14.20;99.90;;;;;;5051315;28;19932;-74
2022/10/25 01:46:11;;;;;;;;;;;14.20;99.90;;;;;;5038596;28;19994;-75
2022/10/25 01:48:41;;;;;;;;;;;14.20;99.90;;;;;;5053450;28;20278;-74
2022/10/25 01:51:09;;;;;;;;;;;14.20;99.90;;;;;;5048055;28;20375;-74
2022/10/25 01:53:43;;;;;;;;;;;14.20;99.90;;;;;;5043974;28;19933;-74
2022/10/25 01:56:10;;;;;;;;;;;14.10;99.90;;;;;;5051405;28;19925;-74
2022/10/25 01:58:40;;;;;;;;;;;14.10;99.90;;;;;;5049031;28;19933;-73
2022/10/25 02:01:14;;;;;;;;;;;14.10;99.90;;;;;;5049849;28;19940;-74
2022/10/25 02:03:43;;;;;;;;;;;14.10;99.90;;;;;;5060773;28;19924;-74
2022/10/25 02:06:16;;;;;;;;;;;14.10;99.90;;;;;;5058073;28;20435;-74
2022/10/25 02:08:46;;;;;;;;;;;14.20;99.90;;;;;;5052249;28;20463;-74
2022/10/25 02:11:17;;;;;;;;;;;14.20;99.90;;;;;;5048191;28;19928;-74
2022/10/25 02:13:48;;;;;;;;;;;14.20;99.90;;;;;;5057329;28;19932;-74
2022/10/25 02:16:18;;;;;;;;;;;14.20;99.90;;;;;;5059659;28;19928;-74
2022/10/25 02:18:48;;;;;;;;;;;14.20;99.90;;;;;;5054427;28;19935;-73
2022/10/25 02:21:16;;;;;;;;;;;14.20;99.90;;;;;;5048541;28;20394;-74
2022/10/25 02:23:43;;;;;;;;;;;14.10;99.90;;;;;;5051166;28;19928;-74
2022/10/25 02:26:10;;;;;;;;;;;14.10;99.90;;;;;;5058940;28;19936;-75
2022/10/25 02:28:38;;;;;;;;;;;14.00;99.90;;;;;;5054517;28;19932;-75
2022/10/25 02:31:06;;;;;;;;;;;14.00;99.90;;;;;;5064518;28;19924;-74
2022/10/25 02:33:34;;;;;;;;;;;14.00;99.90;;;;;;5061715;28;19990;-75
2022/10/25 02:36:09;;;;;;;;;;;14.00;99.90;;;;;;5062973;28;19970;-75
2022/10/25 02:38:36;;;;;;;;;;;14.00;99.90;;;;;;5057351;28;19933;-74
2022/10/25 02:41:03;;;;;;;;;;;14.00;99.90;;;;;;5064036;28;19935;-75
2022/10/25 02:43:30;;;;;;;;;;;14.00;99.90;;;;;;5049967;28;19959;-74
2022/10/25 02:45:57;;;;;;;;;;;14.00;99.90;;;;;;5059271;28;19978;-75
2022/10/25 02:48:23;;;;;;;;;;;14.00;99.90;;;;;;5053135;28;19968;-73
2022/10/25 02:50:51;;;;;;;;;;;14.00;99.90;;;;;;5058358;28;19935;-73
2022/10/25 02:53:18;;;;;;;;;;;14.00;99.90;;;;;;5049627;28;19929;-74
2022/10/25 02:55:45;;;;;;;;;;;14.00;99.90;;;;;;5050460;28;20046;-75
2022/10/25 02:58:11;;;;;;;;;;;14.00;99.90;;;;;;5053345;28;19936;-74
2022/10/25 03:00:38;;;;;;;;;;;13.90;99.90;;;;;;5057960;28;19990;-74
2022/10/25 03:03:05;;;;;;;;;;;13.90;99.90;;;;;;5054136;28;19924;-74
2022/10/25 03:05:31;;;;;;;;;;;13.90;99.90;;;;;;5062623;28;19932;-75
2022/10/25 03:07:59;;;;;;;;;;;14.00;99.90;;;;;;5050629;28;19990;-75
2022/10/25 03:10:26;;;;;;;;;;;14.00;99.90;;;;;;5045396;28;19936;-75
2022/10/25 03:12:53;;;;;;;;;;;14.10;99.90;;;;;;5050920;28;19924;-75
2022/10/25 03:15:19;;;;;;;;;;;14.10;99.90;;;;;;5060757;28;19925;-75
2022/10/25 03:17:46;;;;;;;;;;;14.10;99.90;;;;;;5056100;28;19933;-74
2022/10/25 03:20:13;;;;;;;;;;;14.10;99.90;;;;;;5058671;28;19970;-75
2022/10/25 03:22:40;;;;;;;;;;;14.10;99.90;;;;;;5055057;28;19928;-75
2022/10/25 03:25:08;;;;;;;;;;;14.20;99.90;;;;;;5050626;28;20398;-76
2022/10/25 03:27:35;;;;;;;;;;;14.20;99.90;;;;;;5049946;28;19950;-75
2022/10/25 03:30:02;;;;;;;;;;;14.20;99.90;;;;;;5046370;28;19928;-74
2022/10/25 03:32:29;;;;;;;;;;;14.20;99.90;;;;;;5055327;28;19932;-74
2022/10/25 03:34:55;;;;;;;;;;;14.20;99.90;;;;;;5059252;28;19924;-74
2022/10/25 03:37:22;;;;;;;;;;;14.20;99.90;;;;;;5056950;28;19944;-74
2022/10/25 03:39:49;;;;;;;;;;;14.20;99.90;;;;;;5054987;28;19929;-75
2022/10/25 03:42:17;;;;;;;;;;;14.20;99.90;;;;;;5060517;28;19994;-73
2022/10/25 03:44:43;;;;;;;;;;;14.30;99.90;;;;;;5056173;28;19924;-73
2022/10/25 03:47:10;;;;;;;;;;;14.20;99.90;;;;;;5058424;28;19925;-73
2022/10/25 03:49:37;;;;;;;;;;;14.20;99.90;;;;;;5057949;28;19975;-74
2022/10/25 03:52:04;;;;;;;;;;;14.20;99.90;;;;;;5050528;28;19990;-74
2022/10/25 03:54:31;;;;;;;;;;;14.10;99.90;;;;;;5051459;28;19929;-74
2022/10/25 03:56:58;;;;;;;;;;;14.10;99.90;;;;;;5049398;28;19924;-74
2022/10/25 03:59:26;;;;;;;;;;;14.10;99.90;;;;;;5061171;28;20340;-74
2022/10/25 04:01:53;;;;;;;;;;;14.00;99.90;;;;;;5056670;28;19928;-74
2022/10/25 04:04:20;;;;;;;;;;;14.10;99.90;;;;;;5057438;28;19936;-74
2022/10/25 04:06:46;;;;;;;;;;;14.10;99.90;;;;;;5052718;28;19928;-74
2022/10/25 04:09:13;;;;;;;;;;;14.10;99.90;;;;;;5066161;28;20417;-75
2022/10/25 04:11:40;;;;;;;;;;;14.10;99.90;;;;;;5051956;28;19933;-74
2022/10/25 04:14:06;;;;;;;;;;;14.10;99.90;;;;;;5054839;28;19925;-74
2022/10/25 04:16:34;;;;;;;;;;;14.20;99.90;;;;;;5059519;28;19974;-75
2022/10/25 04:19:01;;;;;;;;;;;14.20;99.90;;;;;;5049444;28;20325;-74
2022/10/25 04:21:28;;;;;;;;;;;14.20;99.90;;;;;;5057050;28;20404;-74
2022/10/25 04:23:54;;;;;;;;;;;14.20;99.90;;;;;;5040549;28;19984;-75
2022/10/25 04:26:21;;;;;;;;;;;14.20;99.90;;;;;;5041139;28;19932;-74
2022/10/25 04:28:49;;;;;;;;;;;14.20;99.90;;;;;;5050811;28;20029;-74
2022/10/25 04:31:15;;;;;;;;;;;14.20;99.90;;;;;;5062108;28;20275;-75
2022/10/25 04:33:43;;;;;;;;;;;14.20;99.90;;;;;;5058071;28;19929;-77
2022/10/25 04:36:10;;;;;;;;;;;14.20;99.90;;;;;;5066226;28;19928;-76
2022/10/25 04:38:37;;;;;;;;;;;14.20;99.90;;;;;;5064418;28;20635;-76
2022/10/25 04:41:03;;;;;;;;;;;14.20;99.90;;;;;;5058196;28;19982;-76
2022/10/25 04:43:30;;;;;;;;;;;14.20;99.90;;;;;;5048095;28;19936;-76
2022/10/25 04:45:59;;;;;;;;;;;14.20;99.90;;;;;;5049138;28;19931;-77
2022/10/25 04:48:26;;;;;;;;;;;14.30;99.90;;;;;;5063260;28;19940;-76
2022/10/25 04:50:54;;;;;;;;;;;14.30;99.90;;;;;;5058507;28;19936;-76
2022/10/25 04:53:20;;;;;;;;;;;14.70;99.90;;;;;;5060084;28;19935;-76
2022/10/25 04:55:54;;;;;;;;;;;14.40;99.90;;;;;;5049505;28;19925;-75
2022/10/25 04:58:21;;;;;;;;;;;14.40;99.90;;;;;;5056304;28;19979;-74
2022/10/25 05:00:48;;;;;;;;;;;14.40;99.90;;;;;;5043435;28;19929;-75
2022/10/25 05:03:15;;;;;;;;;;;14.40;99.90;;;;;;5043445;28;19929;-76
2022/10/25 05:05:41;;;;;;;;;;;14.40;99.90;;;;;;5056608;28;19994;-75
2022/10/25 05:08:10;;;;;;;;;;;14.30;99.90;;;;;;5055725;28;20010;-75
2022/10/25 05:10:36;;;;;;;;;;;14.30;99.90;;;;;;5587881;22;20183;-75
2022/10/25 05:13:03;;;;;;;;;;;14.30;99.90;;;;;;5075182;28;19924;-75
2022/10/25 05:15:30;;;;;;;;;;;14.30;99.90;;;;;;5070469;28;19932;-75
2022/10/25 05:17:56;;;;;;;;;;;14.30;99.90;;;;;;5059769;28;19928;-75
2022/10/25 05:20:23;;;;;;;;;;;14.30;99.90;;;;;;5074043;28;20335;-75
2022/10/25 05:22:50;;;;;;;;;;;14.30;99.90;;;;;;5074257;28;19997;-75
2022/10/25 05:25:18;;;;;;;;;;;14.30;99.90;;;;;;5067908;28;20304;-74
2022/10/25 05:27:45;;;;;;;;;;;14.20;99.90;;;;;;5057792;28;19928;-74
2022/10/25 05:30:12;;;;;;;;;;;14.20;99.90;;;;;;5067860;28;19928;-75
2022/10/25 05:32:38;;;;;;;;;;;14.20;99.90;;;;;;5074192;28;20015;-74
2022/10/25 05:35:05;;;;;;;;;;;14.20;99.90;;;;;;5056333;28;20400;-74
2022/10/25 05:37:32;;;;;;;;;;;14.20;99.90;;;;;;5083957;28;19928;-74
2022/10/25 05:39:58;;;;;;;;;;;14.10;99.90;;;;;;5069977;28;19936;-75
2022/10/25 05:42:27;;;;;;;;;;;14.10;99.90;;;;;;5074571;28;20041;-74
2022/10/25 05:44:54;;;;;;;;;;;14.10;99.90;;;;;;5067394;28;19928;-75
2022/10/25 05:47:21;;;;;;;;;;;14.00;99.90;;;;;;5066140;28;20431;-75
2022/10/25 05:49:48;;;;;;;;;;;14.10;99.90;;;;;;5067532;28;19928;-75
2022/10/25 05:52:14;;;;;;;;;;;14.10;99.90;;;;;;5075156;28;19932;-74
2022/10/25 05:54:41;;;;;;;;;;;14.10;99.90;;;;;;5074643;28;19928;-75
2022/10/25 05:57:08;;;;;;;;;;;14.20;99.90;;;;;;5077203;28;19966;-74
2022/10/25 05:59:36;;;;;;;;;;;14.20;99.90;;;;;;5081842;28;19949;-73
2022/10/25 06:02:03;;;;;;;;;;;14.20;99.90;;;;;;5089078;28;19928;-73
2022/10/25 06:04:30;;;;;;;;;;;14.30;99.90;;;;;;5074972;28;19925;-73
2022/10/25 06:06:56;;;;;;;;;;;14.30;99.90;;;;;;5081415;28;20113;-74
2022/10/25 06:09:23;;;;;;;;;;;14.30;99.90;;;;;;5077054;28;20019;-73
2022/10/25 06:11:50;;;;;;;;;;;14.30;99.90;;;;;;5082998;28;20421;-74
2022/10/25 06:14:16;;;;;;;;;;;14.40;99.90;;;;;;5077766;28;20431;-74
2022/10/25 06:16:44;;;;;;;;;;;14.40;99.90;;;;;;5075357;28;19929;-74
2022/10/25 06:19:11;;;;;;;;;;;14.40;99.90;;;;;;5064048;28;19928;-73
2022/10/25 06:21:38;;;;;;;;;;;14.40;99.90;;;;;;5082102;28;20045;-73
2022/10/25 06:24:05;;;;;;;;;;;14.40;99.90;;;;;;5055555;28;19929;-74
2022/10/25 06:26:32;;;;;;;;;;;14.40;99.90;;;;;;5075035;28;19924;-74
2022/10/25 06:29:01;;;;;;;;;;;14.50;99.90;;;;;;5082600;28;19987;-73
2022/10/25 06:31:28;;;;;;;;;;;14.40;99.90;;;;;;5081680;28;19932;-74
2022/10/25 06:33:56;;;;;;;;;;;14.40;99.90;;;;;;5055964;28;20005;-73
2022/10/25 06:36:23;;;;;;;;;;;14.30;99.90;;;;;;5062933;28;19935;-73
2022/10/25 06:38:50;;;;;;;;;;;14.20;99.90;;;;;;5071917;28;20357;-74
2022/10/25 06:41:18;;;;;;;;;;;14.20;99.90;;;;;;5062125;28;19936;-73
2022/10/25 06:43:45;;;;;;;;;;;14.10;99.90;;;;;;5060792;28;20531;-73
2022/10/25 06:46:14;;;;;;;;;;;14.10;99.90;;;;;;5074950;28;19928;-74
2022/10/25 06:48:41;;;;;;;;;;;14.00;99.90;;;;;;5076014;28;19986;-73
2022/10/25 06:51:09;;;;;;;;;;;14.00;99.90;;;;;;5082083;28;19932;-73
2022/10/25 06:53:36;;;;;;;;;;;14.00;99.90;;;;;;5074739;28;19932;-72
2022/10/25 06:56:04;;;;;;;;;;;14.20;99.90;;;;;;5084054;28;19935;-73
2022/10/25 06:58:31;;;;;;;;;;;14.30;99.90;;;;;;5079705;28;20478;-73
2022/10/25 07:01:02;;;;;;;;;;;14.40;99.90;;;;;;5059550;28;19935;-73
2022/10/25 07:03:33;;;;;;;;;;;14.40;99.90;;;;;;5079268;28;20011;-73
2022/10/25 07:06:00;;;;;;;;;;;14.30;99.90;;;;;;5072538;28;19935;-74
2022/10/25 07:08:28;;;;;;;;;;;14.20;99.90;;;;;;5084328;28;20008;-73
2022/10/25 07:10:56;;;;;;;;;;;14.20;99.90;;;;;;5077516;28;19928;-74
2022/10/25 07:13:22;;;;;;;;;;;14.10;99.90;;;;;;5072819;28;19924;-72
2022/10/25 07:15:49;;;;;;;;;;;14.20;99.90;;;;;;5075137;28;19982;-73
2022/10/25 07:18:16;;;;;;;;;;;14.30;99.90;;;;;;5072187;28;19936;-74
2022/10/25 07:20:47;;;;;;;;;;;14.50;99.90;;;;;;5065356;28;19932;-74
2022/10/25 07:23:14;;;;;;;;;;;14.60;99.90;;;;;;5054909;28;19936;-74
2022/10/25 07:25:42;;;;;;;;;;;14.70;99.90;;;;;;5070954;28;19928;-74
2022/10/25 07:28:11;;;;;;;;;;;14.70;99.90;;;;;;5073025;28;19944;-75
2022/10/25 07:30:37;;;;;;;;;;;14.80;99.90;;;;;;5075766;28;19928;-75
2022/10/25 07:33:05;;;;;;;;;;;14.90;99.90;;;;;;5079574;28;19927;-75
2022/10/25 07:35:32;;;;;;;;;;;15.00;99.90;;;;;;5075797;28;19928;-74
2022/10/25 07:37:59;;;;;;;;;;;15.10;99.90;;;;;;5075133;28;19943;-75
2022/10/25 07:40:26;;;;;;;;;;;15.20;99.90;;;;;;5070667;28;19974;-73
2022/10/25 07:42:54;;;;;;;;;;;15.30;99.90;;;;;;5069769;28;19935;-75
2022/10/25 07:45:21;;;;;;;;;;;15.50;99.90;;;;;;5064331;28;19935;-75
2022/10/25 07:47:50;;;;;;;;;;;15.70;99.90;;;;;;5070148;28;19978;-76
2022/10/25 07:50:18;;;;;;;;;;;16.00;99.90;;;;;;5084230;28;19935;-75
2022/10/25 07:52:45;;;;;;;;;;;16.40;99.90;;;;;;5070334;28;19935;-75
2022/10/25 07:55:11;;;;;;;;;;;16.70;99.90;;;;;;5072738;28;19928;-75
2022/10/25 07:57:38;;;;;;;;;;;16.90;99.90;;;;;;5070655;28;20644;-75
2022/10/25 08:00:07;;;;;;;;;;;17.00;99.90;;;;;;5072259;28;19928;-75
2022/10/25 08:02:34;;;;;;;;;;;17.10;99.90;;;;;;5070725;28;19924;-76
2022/10/25 08:05:01;;;;;;;;;;;17.10;99.90;;;;;;5069820;28;19928;-74
2022/10/25 08:07:28;;;;;;;;;;;17.20;99.90;;;;;;5076306;28;19929;-73
2022/10/25 08:09:55;;;;;;;;;;;17.20;99.90;;;;;;5069836;28;19989;-73
2022/10/25 08:12:22;;;;;;;;;;;17.20;99.90;;;;;;5072379;28;19958;-74
2022/10/25 08:14:48;;;;;;;;;;;17.20;99.90;;;;;;5077607;28;20432;-74
2022/10/25 08:17:16;;;;;;;;;;;17.30;99.90;;;;;;5076463;28;19952;-74
2022/10/25 08:19:43;;;;;;;;;;;17.60;99.90;;;;;;5076756;28;19928;-74
2022/10/25 08:22:10;;;;;;;;;;;17.70;99.90;;;;;;5079542;28;19939;-73
2022/10/25 08:24:37;;;;;;;;;;;17.70;99.90;;;;;;5055783;28;19935;-74
2022/10/25 08:27:04;;;;;;;;;;;17.60;99.90;;;;;;5081037;28;19959;-73
2022/10/25 08:29:31;;;;;;;;;;;17.20;99.90;;;;;;5071126;28;20008;-75
2022/10/25 08:31:57;;;;;;;;;;;17.30;99.90;;;;;;5079511;28;20416;-75
2022/10/25 08:34:25;;;;;;;;;;;17.20;99.90;;;;;;5072394;28;20409;-74
2022/10/25 08:36:52;;;;;;;;;;;17.00;99.90;;;;;;5069257;28;19928;-75
2022/10/25 08:39:19;;;;;;;;;;;16.80;99.90;;;;;;5076303;28;19935;-75
2022/10/25 08:41:50;;;;;;;;;;;16.70;99.90;;;;;;5075339;28;19932;-75
2022/10/25 08:44:19;;;;;;;;;;;16.70;99.90;;;;;;5067842;28;19939;-74
2022/10/25 08:46:52;;;;;;;;;;;16.80;99.90;;;;;;5066190;28;19927;-75
2022/10/25 08:49:22;;;;;;;;;;;17.00;99.90;;;;;;5075905;28;19924;-76
2022/10/25 08:51:52;;;;;;;;;;;17.20;99.90;;;;;;5075167;28;20306;-74
2022/10/25 08:54:22;;;;;;;;;;;17.40;99.90;;;;;;5079396;28;20459;-75
2022/10/25 08:56:50;;;;;;;;;;;17.70;99.90;;;;;;5070053;28;19935;-76
2022/10/25 08:59:20;;;;;;;;;;;18.00;99.90;;;;;;5069612;28;20524;-74
2022/10/25 09:01:51;;;;;;;;;;;18.30;99.90;;;;;;5074184;28;19927;-75
2022/10/25 09:04:18;;;;;;;;;;;18.50;99.90;;;;;;5056778;28;20270;-75
2022/10/25 09:06:50;;;;;;;;;;;18.70;99.90;;;;;;5082876;28;19928;-76
2022/10/25 09:09:24;;;;;;;;;;;19.10;99.90;;;;;;5077896;28;19932;-75
2022/10/25 09:11:55;;;;;;;;;;;19.40;99.90;;;;;;5067917;28;19925;-75
2022/10/25 09:14:26;;;;;;;;;;;19.60;99.90;;;;;;5072552;28;19932;-76
2022/10/25 09:16:53;;;;;;;;;;;19.70;99.90;;;;;;5075012;28;20277;-75
2022/10/25 09:19:25;;;;;;;;;;;19.60;99.90;;;;;;5055464;28;19928;-75
2022/10/25 09:21:56;;;;;;;;;;;19.50;99.90;;;;;;5083120;28;20030;-73
2022/10/25 09:24:28;;;;;;;;;;;19.50;99.90;;;;;;5082931;28;20405;-74
2022/10/25 09:27:00;;;;;;;;;;;19.30;99.90;;;;;;5072765;28;19932;-74
2022/10/25 09:29:29;;;;;;;;;;;;;;;;;;5072168;28;19935;-74
2022/10/25 09:31:58;;;;;;;;;;;19.10;99.90;;;;;;5077541;28;19928;-74
2022/10/25 09:34:28;;;;;;;;;;;18.90;99.90;;;;;;5070529;28;19931;-73
2022/10/25 09:36:57;;;;;;;;;;;18.50;99.90;;;;;;5069938;28;19928;-76
2022/10/25 09:39:31;;;;;;;;;;;18.60;99.90;;;;;;5072144;28;19933;-74
2022/10/25 09:41:58;;;;;;;;;;;18.50;99.90;;;;;;5074032;28;20467;-76
2022/10/25 09:44:31;;;;;;;;;;;18.50;99.90;;;;;;5063251;28;19924;-76
2022/10/25 09:47:01;;;;;;;;;;;18.40;99.90;;;;;;5074082;28;20495;-74
2022/10/25 09:49:31;;;;;;;;;;;18.30;99.90;;;;;;5069410;28;20000;-74
2022/10/25 09:52:00;;;;;;;;;;;18.30;99.90;;;;;;5085710;28;19966;-73
2022/10/25 09:54:31;;;;;;;;;;;18.30;99.90;;;;;;5075672;28;19978;-76
2022/10/25 09:56:58;;;;;;;;;;;18.30;99.90;;;;;;5072336;28;19929;-74
2022/10/25 09:59:26;;;;;;;;;;;18.40;99.90;;;;;;5072782;28;19943;-75
2022/10/25 10:01:53;;;;;;;;;;;18.40;99.90;;;;;;5083717;28;20576;-75
2022/10/25 10:04:25;;;;;;;;;;;18.40;99.90;;;;;;5068250;28;20278;-73
2022/10/25 10:06:53;;;;;;;;;;;18.30;99.90;;;;;;5071995;28;19936;-74
2022/10/25 10:09:20;;;;;;;;;;;18.20;99.90;;;;;;5071661;28;19970;-74
2022/10/25 10:11:51;;;;;;;;;;;18.20;99.90;;;;;;5079098;28;19928;-74
2022/10/25 10:14:22;;;;;;;;;;;18.20;99.90;;;;;;5078104;28;19970;-75
2022/10/25 10:16:50;;;;;;;;;;;18.20;99.90;;;;;;5065121;28;19989;-75
2022/10/25 10:19:18;;;;;;;;;;;18.20;99.90;;;;;;5044680;28;19932;-75
2022/10/25 10:21:47;;;;;;;;;;;18.30;99.90;;;;;;5052298;28;20714;-75
2022/10/25 10:24:17;;;;;;;;;;;18.30;99.90;;;;;;5065158;28;19925;-75
2022/10/25 10:26:47;;;;;;;;;;;18.30;99.90;;;;;;5049591;28;19936;-77
2022/10/25 10:29:17;;;;;;;;;;;18.40;99.90;;;;;;5073107;28;19924;-77
2022/10/25 10:31:46;;;;;;;;;;;18.60;99.90;;;;;;5066712;28;19928;-76
2022/10/25 10:34:26;;;;;;;;;;;18.80;99.90;;;;;;5076813;28;19998;-75
2022/10/25 10:37:07;;;;;;;;;;;19.00;99.90;;;;;;5078637;28;19928;-77
2022/10/25 10:39:34;;;;;;;;;;;19.40;99.90;;;;;;5073841;28;19924;-75
2022/10/25 10:42:02;;;;;;;;;;;19.40;99.90;;;;;;5083244;28;19931;-77
2022/10/25 10:44:33;;;;;;;;;;;19.70;99.90;;;;;;5074403;28;20592;-76
2022/10/25 10:47:00;;;;;;;;;;;20.00;99.90;;;;;;5063344;28;19970;-76
2022/10/25 10:49:33;;;;;;;;;;;20.40;99.90;;;;;;5073312;28;19940;-76
2022/10/25 10:52:01;;;;;;;;;;;20.60;99.90;;;;;;5075509;28;19928;-75
2022/10/25 10:54:30;;;;;;;;;;;20.70;99.90;;;;;;5077714;28;20015;-74
2022/10/25 10:56:58;;;;;;;;;;;20.70;99.90;;;;;;5075095;28;19978;-74
2022/10/25 10:59:33;;;;;;;;;;;20.70;99.90;;;;;;5071237;28;19925;-74
2022/10/25 11:02:10;;;;;;;;;;;20.80;99.90;;;;;;5078960;28;20750;-74
2022/10/25 11:04:45;;;;;;;;;;;20.70;99.90;;;;;;5073071;28;19928;-74
2022/10/25 11:07:13;;;;;;;;;;;20.60;99.90;;;;;;5076758;28;19928;-75
2022/10/25 11:09:40;;;;;;;;;;;20.50;99.90;;;;;;5080189;28;20016;-75
2022/10/25 11:12:09;;;;;;;;;;;20.50;99.90;;;;;;5070932;28;19924;-76
2022/10/25 11:14:37;;;;;;;;;;;20.60;99.90;;;;;;5081711;28;20034;-75
2022/10/25 11:17:09;;;;;;;;;;;20.90;99.90;;;;;;5078158;28;19990;-75
2022/10/25 11:19:43;;;;;;;;;;;21.40;99.90;;;;;;5068053;28;19928;-75
2022/10/25 11:22:31;;;;;;;;;;;21.50;99.90;;;;;;5078171;28;19929;-75
2022/10/25 11:25:05;;;;;;;;;;;21.60;99.90;;;;;;5072414;28;19928;-76
2022/10/25 11:27:37;;;;;;;;;;;21.70;99.90;;;;;;5069446;28;20356;-76
2022/10/25 11:30:16;;;;;;;;;;;21.10;99.90;;;;;;5064798;28;20348;-76
2022/10/25 11:32:53;;;;;;;;;;;20.90;99.90;;;;;;5069607;28;20332;-75
2022/10/25 11:35:28;;;;;;;;;;;21.80;99.90;;;;;;5082570;28;19993;-74
2022/10/25 11:38:01;;;;;;;;;;;21.50;99.90;;;;;;5081186;28;19931;-74
2022/10/25 11:40:29;;;;;;;;;;;21.50;99.90;;;;;;5072825;28;19969;-75
2022/10/25 11:43:01;;;;;;;;;;;21.50;99.90;;;;;;5070954;28;19932;-75
2022/10/25 11:45:42;;;;;;;;;;;21.20;99.90;;;;;;5078053;28;19935;-75
2022/10/25 11:48:20;;;;;;;;;;;21.00;99.90;;;;;;5076099;28;19928;-74
2022/10/25 11:50:50;;;;;;;;;;;21.10;99.90;;;;;;5069321;28;19951;-74
2022/10/25 11:53:25;;;;;;;;;;;21.30;99.90;;;;;;5076444;28;19974;-75
2022/10/25 11:55:54;;;;;;;;;;;21.30;99.90;;;;;;5081904;28;20311;-75
2022/10/25 11:58:33;;;;;;;;;;;20.20;99.90;;;;;;5072998;28;19978;-75
2022/10/25 12:01:06;;;;;;;;;;;21.50;99.90;;;;;;5078008;28;19927;-74
2022/10/25 12:03:43;;;;;;;;;;;21.30;99.90;;;;;;5080590;28;20552;-75
2022/10/25 12:06:14;;;;;;;;;;;21.10;99.90;;;;;;5055966;28;19927;-75
2022/10/25 12:08:46;;;;;;;;;;;21.00;99.90;;;;;;5074409;28;20049;-76
2022/10/25 12:11:17;;;;;;;;;;;21.00;99.90;;;;;;5069536;28;20022;-76
2022/10/25 12:13:46;;;;;;;;;;;21.20;99.90;;;;;;5074329;28;20051;-74
2022/10/25 12:16:16;;;;;;;;;;;21.30;99.90;;;;;;5070506;28;19932;-74
2022/10/25 12:18:44;;;;;;;;;;;21.50;99.90;;;;;;5078126;28;19994;-74
2022/10/25 12:21:15;;;;;;;;;;;21.80;99.90;;;;;;5071908;28;19950;-74
2022/10/25 12:23:45;;;;;;;;;;;21.90;99.90;;;;;;5089251;28;19980;-75
2022/10/25 12:26:17;;;;;;;;;;;22.00;99.90;;;;;;5068886;28;19929;-76
2022/10/25 12:28:44;;;;;;;;;;;22.00;99.90;;;;;;5075742;28;19937;-76
2022/10/25 12:31:15;;;;;;;;;;;22.00;99.90;;;;;;5081527;28;20031;-75
2022/10/25 12:33:44;;;;;;;;;;;22.00;99.90;;;;;;5078243;28;20657;-75
2022/10/25 12:36:16;;;;;;;;;;;22.20;99.90;;;;;;5056268;28;19924;-76
2022/10/25 12:38:43;;;;;;;;;;;22.20;99.90;;;;;;5067694;28;20532;-75
2022/10/25 12:41:15;;;;;;;;;;;22.00;99.90;;;;;;5051900;28;20072;-75
2022/10/25 12:43:46;;;;;;;;;;;22.00;99.90;;;;;;5063691;28;19970;-74
2022/10/25 12:46:30;;;;;;;;;;;21.90;99.90;;;;;;5076189;28;19931;-75
2022/10/25 12:49:11;;;;;;;;;;;21.70;99.90;;;;;;5063737;28;20481;-75
2022/10/25 12:51:49;;;;;;;;;;;21.40;99.90;;;;;;5072923;28;19935;-75
2022/10/25 12:54:28;;;;;;;;;;;21.20;99.90;;;;;;5074799;28;19936;-75
2022/10/25 12:57:00;;;;;;;;;;;21.10;99.90;;;;;;5070854;28;19925;-75
2022/10/25 12:59:35;;;;;;;;;;;21.10;99.90;;;;;;5063457;28;19924;-76
2022/10/25 13:02:14;;;;;;;;;;;19.70;99.90;;;;;;5076735;28;19981;-75
2022/10/25 13:04:55;;;;;;;;;;;21.00;99.90;;;;;;5067604;28;19928;-76
2022/10/25 13:07:24;;;;;;;;;;;21.00;99.90;;;;;;5066029;28;19971;-75
2022/10/25 13:09:51;;;;;;;;;;;21.10;99.90;;;;;;5072475;28;19932;-75
2022/10/25 13:12:22;;;;;;;;;;;21.20;99.90;;;;;;5071662;28;19924;-75
2022/10/25 13:14:50;;;;;;;;;;;21.50;99.90;;;;;;5060086;28;19936;-75
2022/10/25 13:17:36;;;;;;;;;;;21.30;99.90;;;;;;5067893;28;19924;-75
2022/10/25 13:20:23;;;;;;;;;;;21.20;99.90;;;;;;5063195;28;19925;-75
2022/10/25 13:22:52;;;;;;;;;;;20.80;99.90;;;;;;5068679;28;19974;-74
2022/10/25 13:25:44;;;;;;;;;;;20.80;99.90;;;;;;5059390;28;20347;-74
2022/10/25 13:28:44;;;;;;;;;;;20.80;99.90;;;;;;5036880;28;19979;-75
2022/10/25 13:31:30;;;;;;;;;;;20.60;99.90;;;;;;5049153;28;20076;-75
2022/10/25 13:34:11;;;;;;;;;;;20.40;99.90;;;;;;5056511;28;19929;-75
2022/10/25 13:36:47;;;;;;;;;;;20.10;99.90;;;;;;5048707;28;19932;-75
2022/10/25 13:39:17;;;;;;;;;;;19.90;99.90;;;;;;5068149;28;19984;-75
2022/10/25 13:41:44;;;;;;;;;;;19.60;99.90;;;;;;5067071;28;19924;-74
2022/10/25 13:44:18;;;;;;;;;;;19.40;99.90;;;;;;5076023;28;19928;-73
2022/10/25 13:46:45;;;;;;;;;;;19.30;99.90;;;;;;5052056;28;20026;-73
2022/10/25 13:49:24;;;;;;;;;;;19.20;99.90;;;;;;5075557;28;19928;-75
2022/10/25 13:51:53;;;;;;;;;;;19.10;99.90;;;;;;5071774;28;19928;-74
2022/10/25 13:54:22;;;;;;;;;;;19.00;99.90;;;;;;5080977;28;19935;-74
2022/10/25 13:56:50;;;;;;;;;;;19.00;99.90;;;;;;5075246;28;19928;-73
2022/10/25 13:59:31;;;;;;;;;;;18.90;99.90;;;;;;5079582;28;19939;-74
2022/10/25 14:02:07;;;;;;;;;;;18.90;99.90;;;;;;5065573;28;19924;-74
2022/10/25 14:04:39;;;;;;;;;;;18.80;99.90;;;;;;5073918;28;19928;-73
2022/10/25 14:07:25;;;;;;;;;;;18.90;99.90;;;;;;5070543;28;20440;-72
2022/10/25 14:09:53;;;;;;;;;;;18.90;99.90;;;;;;5071592;28;19929;-74
2022/10/25 14:12:21;;;;;;;;;;;18.90;99.90;;;;;;5072709;28;19935;-74
2022/10/25 14:14:53;;;;;;;;;;;19.00;99.90;;;;;;5072264;28;19928;-74
2022/10/25 14:17:23;;;;;;;;;;;19.00;99.90;;;;;;5077178;28;19978;-76
2022/10/25 14:19:51;;;;;;;;;;;19.10;99.90;;;;;;5066391;28;19935;-76
2022/10/25 14:22:20;;;;;;;;;;;19.00;99.90;;;;;;5061951;28;19928;-75
2022/10/25 14:24:49;;;;;;;;;;;19.00;99.90;;;;;;5087680;28;20034;-76
2022/10/25 14:27:36;;;;;;;;;;;18.90;99.90;;;;;;5081360;28;20002;-76
2022/10/25 14:30:24;;;;;;;;;;;18.70;99.90;;;;;;5071328;28;20374;-75
2022/10/25 14:32:52;;;;;;;;;;;18.70;99.90;;;;;;5073276;28;19978;-75